Time;durP1;ratioP1;P1;durP2;ratioP2;P2;SDS_P1;SDS_P2;PMS_P1;PMS_P2;Temp;Humidity;BMP_temperature;BMP_pressure;BME280_temperature;BME280_humidity;BME280_pressure;Samples;Min_cycle;Max_cycle;Signal;HPM_P1;HPM_P2
2024/01/18 00:00:32;;;;;;;2.33;1.90;;;21.10;53.40;;;;;;5093295;28;20216;-70
2024/01/18 00:02:57;;;;;;;2.10;1.90;;;21.10;53.40;;;;;;5093347;28;20253;-71
2024/01/18 00:05:23;;;;;;;2.53;1.77;;;21.10;53.40;;;;;;5093469;28;20193;-70
2024/01/18 00:07:49;;;;;;;2.40;2.07;;;21.00;53.30;;;;;;5093492;28;20173;-71
2024/01/18 00:10:14;;;;;;;2.77;2.07;;;21.00;53.30;;;;;;5093599;28;20188;-70
2024/01/18 00:12:41;;;;;;;2.23;1.60;;;21.00;53.30;;;;;;5096814;28;20201;-71
2024/01/18 00:15:08;;;;;;;2.43;2.00;;;21.00;53.30;;;;;;5097583;28;20499;-69
2024/01/18 00:17:33;;;;;;;2.63;2.00;;;21.00;53.30;;;;;;5097294;28;20435;-71
2024/01/18 00:19:59;;;;;;;2.73;1.97;;;21.00;53.40;;;;;;5097377;28;20434;-70
2024/01/18 00:22:24;;;;;;;2.00;1.60;;;21.00;53.40;;;;;;5096457;28;20298;-70
2024/01/18 00:24:50;;;;;;;2.03;1.70;;;21.00;53.30;;;;;;5096819;28;20189;-70
2024/01/18 00:27:16;;;;;;;2.20;1.60;;;21.00;53.30;;;;;;5097652;28;20184;-71
2024/01/18 00:29:41;;;;;;;2.83;2.10;;;21.00;53.30;;;;;;5097157;28;20569;-70
2024/01/18 00:32:07;;;;;;;2.50;2.20;;;21.00;53.30;;;;;;5097612;28;20674;-70
2024/01/18 00:34:32;;;;;;;3.47;2.57;;;21.00;53.30;;;;;;5097318;28;20197;-71
2024/01/18 00:36:58;;;;;;;3.90;2.77;;;21.00;53.30;;;;;;5097367;28;20180;-71
2024/01/18 00:39:24;;;;;;;2.67;2.00;;;21.00;53.30;;;;;;5097416;28;20182;-71
2024/01/18 00:41:50;;;;;;;2.90;1.73;;;21.00;53.40;;;;;;5097317;28;20166;-71
2024/01/18 00:44:15;;;;;;;2.80;1.87;;;21.00;53.40;;;;;;5096784;28;20218;-71
2024/01/18 00:46:41;;;;;;;2.10;1.87;;;21.00;53.30;;;;;;5097382;28;20212;-70
2024/01/18 00:49:07;;;;;;;2.17;1.93;;;21.00;53.40;;;;;;5096937;28;20185;-71
2024/01/18 00:51:32;;;;;;;2.80;2.27;;;21.00;53.40;;;;;;5096777;28;20254;-70
2024/01/18 00:53:58;;;;;;;2.07;1.70;;;21.00;53.40;;;;;;5096893;28;20180;-71
2024/01/18 00:56:23;;;;;;;2.17;1.60;;;21.00;53.40;;;;;;5077930;28;20177;-70
2024/01/18 00:58:49;;;;;;;2.30;1.77;;;21.00;53.40;;;;;;5095477;28;20193;-71
2024/01/18 01:01:16;;;;;;;2.13;1.67;;;21.00;53.40;;;;;;5077473;28;20265;-69
2024/01/18 01:03:41;;;;;;;3.40;2.50;;;21.00;53.40;;;;;;5095649;28;20454;-68
2024/01/18 01:06:11;;;;;;;2.40;1.70;;;21.00;53.40;;;;;;5095686;28;20977;-69
2024/01/18 01:08:36;;;;;;;1.80;1.50;;;20.90;53.30;;;;;;5076905;28;20208;-68
2024/01/18 01:11:08;;;;;;;2.40;1.80;;;20.90;53.30;;;;;;5077081;28;20443;-68
2024/01/18 01:13:34;;;;;;;2.03;1.53;;;20.90;53.30;;;;;;5095631;28;20177;-72
2024/01/18 01:15:59;;;;;;;2.40;2.03;;;20.90;53.30;;;;;;5095346;28;20906;-69
2024/01/18 01:18:25;;;;;;;2.00;1.70;;;20.90;53.30;;;;;;5095056;28;20185;-68
2024/01/18 01:20:50;;;;;;;2.57;2.10;;;20.90;53.40;;;;;;5095424;28;20659;-69
2024/01/18 01:23:16;;;;;;;3.33;2.20;;;20.90;53.40;;;;;;5095365;28;20204;-68
2024/01/18 01:25:42;;;;;;;2.97;1.90;;;20.90;53.40;;;;;;5094986;28;20193;-69
2024/01/18 01:28:07;;;;;;;2.70;1.70;;;20.80;53.30;;;;;;5095106;28;20661;-69
2024/01/18 01:30:33;;;;;;;2.40;1.67;;;20.80;53.30;;;;;;5077680;28;20194;-69
2024/01/18 01:32:58;;;;;;;2.50;2.10;;;20.80;53.40;;;;;;5095869;28;20170;-69
2024/01/18 01:35:24;;;;;;;4.03;1.87;;;20.80;53.30;;;;;;5095541;28;20173;-69
2024/01/18 01:37:50;;;;;;;2.57;2.00;;;20.80;53.40;;;;;;5095952;28;20668;-70
2024/01/18 01:40:16;;;;;;;1.90;1.57;;;20.80;53.40;;;;;;5095804;28;20189;-71
2024/01/18 01:42:41;;;;;;;2.57;1.70;;;20.80;53.40;;;;;;5095932;28;20170;-68
2024/01/18 01:45:07;;;;;;;2.07;1.53;;;20.80;53.40;;;;;;5095795;28;20454;-69
2024/01/18 01:47:33;;;;;;;1.97;1.53;;;20.80;53.40;;;;;;5096046;28;20174;-69
2024/01/18 01:50:00;;;;;;;2.67;1.63;;;20.80;53.40;;;;;;5096267;28;20190;-69
2024/01/18 01:52:27;;;;;;;2.20;1.60;;;20.80;53.50;;;;;;5096348;28;20727;-69
2024/01/18 01:54:54;;;;;;;1.97;1.73;;;20.80;53.50;;;;;;5095922;28;20929;-67
2024/01/18 01:57:20;;;;;;;2.03;1.57;;;20.80;53.50;;;;;;5095115;28;20428;-68
2024/01/18 01:59:47;;;;;;;2.43;1.50;;;20.80;53.50;;;;;;5095670;28;20526;-69
2024/01/18 02:02:13;;;;;;;2.23;1.80;;;20.80;53.50;;;;;;5095661;28;20465;-68
2024/01/18 02:04:39;;;;;;;1.87;1.60;;;20.80;53.50;;;;;;5095693;28;20443;-69
2024/01/18 02:07:06;;;;;;;2.83;1.90;;;20.80;53.50;;;;;;5095069;28;20404;-69
2024/01/18 02:09:32;;;;;;;1.73;1.50;;;20.80;53.50;;;;;;5094489;28;20439;-69
2024/01/18 02:11:59;;;;;;;2.43;1.93;;;20.80;53.50;;;;;;5094227;28;20412;-70
2024/01/18 02:14:25;;;;;;;2.23;2.00;;;20.80;53.50;;;;;;5094908;28;20403;-69
2024/01/18 02:16:51;;;;;;;2.00;1.63;;;20.80;53.40;;;;;;5094248;28;20506;-70
2024/01/18 02:19:17;;;;;;;2.10;1.70;;;20.80;53.40;;;;;;5094180;28;20506;-70
2024/01/18 02:21:43;;;;;;;2.07;1.50;;;20.80;53.50;;;;;;5094537;28;20682;-70
2024/01/18 02:24:31;;;;;;;2.17;1.70;;;20.80;53.50;;;;;;5094869;28;20407;-70
2024/01/18 02:26:57;;;;;;;1.93;1.73;;;20.80;53.50;;;;;;5094431;28;20166;-69
2024/01/18 02:29:23;;;;;;;1.80;1.53;;;20.80;53.50;;;;;;5094644;28;20513;-69
2024/01/18 02:31:48;;;;;;;1.90;1.60;;;20.70;53.40;;;;;;5076065;28;20546;-69
2024/01/18 02:34:17;;;;;;;1.77;1.67;;;20.70;53.40;;;;;;5092800;28;20219;-69
2024/01/18 02:36:43;;;;;;;1.90;1.30;;;20.70;53.40;;;;;;5075937;28;20178;-70
2024/01/18 02:39:09;;;;;;;2.53;2.33;;;20.70;53.40;;;;;;5093545;28;20424;-69
2024/01/18 02:41:35;;;;;;;2.00;1.70;;;20.70;53.40;;;;;;5093952;28;20414;-69
2024/01/18 02:44:01;;;;;;;2.77;2.20;;;20.70;53.40;;;;;;5093930;28;20515;-70
2024/01/18 02:46:31;;;;;;;2.33;1.73;;;20.70;53.40;;;;;;5075043;28;20428;-69
2024/01/18 02:48:56;;;;;;;2.00;1.60;;;20.70;53.40;;;;;;5093546;28;20557;-70
2024/01/18 02:51:22;;;;;;;1.80;1.30;;;20.70;53.40;;;;;;5093525;28;20404;-69
2024/01/18 02:53:47;;;;;;;2.13;1.73;;;20.70;53.40;;;;;;5094373;28;20161;-69
2024/01/18 02:56:13;;;;;;;1.97;1.53;;;20.70;53.40;;;;;;5094094;28;20204;-69
2024/01/18 02:58:39;;;;;;;1.40;1.20;;;20.70;53.50;;;;;;5076033;28;20246;-68
2024/01/18 03:01:05;;;;;;;1.97;1.37;;;20.70;53.50;;;;;;5094007;28;20423;-69
2024/01/18 03:03:30;;;;;;;2.00;1.50;;;20.70;53.50;;;;;;5093960;28;20534;-70
2024/01/18 03:05:56;;;;;;;2.90;1.97;;;20.70;53.50;;;;;;5094153;28;20296;-69
2024/01/18 03:08:21;;;;;;;2.17;1.50;;;20.60;53.40;;;;;;5093583;28;20541;-67
2024/01/18 03:10:47;;;;;;;3.13;1.60;;;20.70;53.50;;;;;;5093427;28;20181;-69
2024/01/18 03:13:12;;;;;;;2.00;1.70;;;20.70;53.50;;;;;;5093707;28;20180;-69
2024/01/18 03:15:38;;;;;;;1.93;1.57;;;20.60;54.00;;;;;;5093917;28;20196;-69
2024/01/18 03:18:04;;;;;;;1.80;1.50;;;20.60;53.40;;;;;;5093801;28;20185;-69
2024/01/18 03:20:29;;;;;;;1.77;1.60;;;20.60;53.40;;;;;;5093964;28;20204;-69
2024/01/18 03:22:56;;;;;;;1.83;1.57;;;20.60;53.50;;;;;;5075285;28;20183;-69
2024/01/18 03:25:22;;;;;;;1.93;1.63;;;20.60;53.40;;;;;;5093089;28;20197;-68
2024/01/18 03:27:47;;;;;;;1.90;1.70;;;20.60;53.40;;;;;;5093115;28;20903;-68
2024/01/18 03:30:13;;;;;;;1.90;1.50;;;20.60;53.40;;;;;;5075181;28;20205;-69
2024/01/18 03:32:39;;;;;;;1.60;1.43;;;20.60;53.40;;;;;;5093663;28;20166;-68
2024/01/18 03:35:06;;;;;;;1.70;1.40;;;20.60;53.40;;;;;;5094044;28;20177;-69
2024/01/18 03:37:31;;;;;;;1.80;1.60;;;20.60;53.40;;;;;;5093589;28;20177;-71
2024/01/18 03:39:57;;;;;;;1.50;1.30;;;20.60;53.40;;;;;;5093695;28;20439;-67
2024/01/18 03:42:22;;;;;;;1.73;1.33;;;20.60;53.40;;;;;;5093687;28;20239;-68
2024/01/18 03:44:48;;;;;;;2.30;1.47;;;20.60;53.40;;;;;;5093407;28;20209;-68
2024/01/18 03:47:14;;;;;;;1.50;1.23;;;20.60;53.40;;;;;;5092904;28;20174;-68
2024/01/18 03:49:41;;;;;;;2.20;1.60;;;20.60;53.40;;;;;;5093157;28;20224;-69
2024/01/18 03:52:07;;;;;;;2.27;1.37;;;20.60;53.40;;;;;;5093506;28;20231;-70
2024/01/18 03:54:32;;;;;;;1.80;1.53;;;20.60;53.40;;;;;;5093434;28;20408;-69
2024/01/18 03:56:58;;;;;;;1.50;1.40;;;20.60;53.40;;;;;;5093519;28;20173;-68
2024/01/18 03:59:23;;;;;;;1.47;1.23;;;20.60;53.50;;;;;;5092767;28;20272;-69
2024/01/18 04:01:50;;;;;;;1.73;1.40;;;20.60;53.40;;;;;;5092476;28;20219;-69
2024/01/18 04:04:15;;;;;;;2.00;1.70;;;20.60;53.40;;;;;;5092503;28;20590;-69
2024/01/18 04:06:41;;;;;;;2.33;1.70;;;20.60;53.40;;;;;;5092077;28;20443;-69
2024/01/18 04:09:08;;;;;;;1.63;1.50;;;20.60;53.40;;;;;;5092817;28;20212;-69
2024/01/18 04:11:34;;;;;;;1.90;1.60;;;20.60;53.40;;;;;;5092761;28;20158;-69
2024/01/18 04:13:59;;;;;;;1.93;1.60;;;20.60;53.40;;;;;;5073939;28;20518;-69
2024/01/18 04:16:25;;;;;;;1.77;1.20;;;20.60;53.40;;;;;;5092107;28;20169;-69
2024/01/18 04:18:50;;;;;;;2.50;1.57;;;20.60;53.40;;;;;;5092280;28;20575;-70
2024/01/18 04:21:16;;;;;;;2.40;1.60;;;20.60;53.40;;;;;;5092097;28;20342;-69
2024/01/18 04:23:42;;;;;;;1.50;1.30;;;20.60;53.40;;;;;;5092441;28;20644;-70
2024/01/18 04:26:08;;;;;;;1.97;1.40;;;20.60;53.40;;;;;;5092536;28;20335;-69
2024/01/18 04:28:33;;;;;;;1.93;1.30;;;20.60;53.40;;;;;;5092266;28;20169;-70
2024/01/18 04:30:59;;;;;;;1.60;1.30;;;20.60;53.40;;;;;;5092187;28;20656;-69
2024/01/18 04:33:25;;;;;;;2.00;1.23;;;20.60;53.40;;;;;;5092669;28;20691;-69
2024/01/18 04:35:50;;;;;;;1.77;1.40;;;20.60;53.40;;;;;;5092378;28;20504;-68
2024/01/18 04:38:16;;;;;;;1.60;1.40;;;20.60;53.40;;;;;;5092278;28;20173;-69
2024/01/18 04:40:42;;;;;;;1.90;1.30;;;20.50;53.30;;;;;;5092409;28;20193;-69
2024/01/18 04:43:07;;;;;;;1.60;1.20;;;20.50;53.30;;;;;;5092973;28;20269;-69
2024/01/18 04:45:33;;;;;;;1.80;1.40;;;20.50;53.30;;;;;;5093275;28;20185;-69
2024/01/18 04:47:58;;;;;;;1.40;1.20;;;20.50;53.30;;;;;;5093662;28;20219;-68
2024/01/18 04:50:25;;;;;;;1.50;1.30;;;20.50;53.40;;;;;;5093189;28;20193;-70
2024/01/18 04:52:51;;;;;;;1.83;1.50;;;20.50;53.40;;;;;;5093371;28;20579;-69
2024/01/18 04:55:17;;;;;;;1.47;1.30;;;20.50;53.40;;;;;;5093291;28;20412;-69
2024/01/18 04:57:43;;;;;;;1.50;1.10;;;20.50;53.40;;;;;;5095096;28;20452;-69
2024/01/18 05:00:10;;;;;;;1.77;1.40;;;20.50;53.40;;;;;;5096745;28;20193;-69
2024/01/18 05:02:42;;;;;;;1.70;1.43;;;20.50;53.50;;;;;;5096731;28;20408;-69
2024/01/18 05:05:08;;;;;;;1.97;1.50;;;20.50;53.50;;;;;;5096243;28;20462;-70
2024/01/18 05:07:35;;;;;;;1.50;1.30;;;20.50;53.40;;;;;;5078470;28;20550;-69
2024/01/18 05:10:03;;;;;;;1.70;1.20;;;20.50;53.40;;;;;;5096659;28;21001;-69
2024/01/18 05:12:29;;;;;;;1.67;1.17;;;20.60;53.50;;;;;;5096668;28;20408;-69
2024/01/18 05:14:55;;;;;;;1.37;1.27;;;20.60;53.50;;;;;;5095679;28;20412;-70
2024/01/18 05:17:21;;;;;;;1.27;0.93;;;20.60;53.50;;;;;;5077004;28;20242;-69
2024/01/18 05:19:47;;;;;;;1.50;1.10;;;20.60;53.50;;;;;;5095583;28;20206;-69
2024/01/18 05:22:12;;;;;;;1.70;1.43;;;20.60;53.50;;;;;;5094900;28;20418;-69
2024/01/18 05:24:39;;;;;;;1.73;1.37;;;20.60;53.40;;;;;;5095102;28;20169;-69
2024/01/18 05:27:06;;;;;;;1.90;1.47;;;20.60;53.40;;;;;;5095625;28;20185;-69
2024/01/18 05:29:31;;;;;;;1.80;1.37;;;20.60;53.40;;;;;;5095087;28;20489;-70
2024/01/18 05:31:57;;;;;;;3.50;2.73;;;20.60;53.40;;;;;;5093073;28;20400;-70
2024/01/18 05:34:23;;;;;;;3.97;3.50;;;20.60;53.30;;;;;;5093217;28;20197;-69
2024/01/18 05:36:48;;;;;;;4.83;3.10;;;20.50;52.90;;;;;;5093107;28;20170;-70
2024/01/18 05:39:14;;;;;;;1.90;1.50;;;20.50;52.70;;;;;;5092684;28;20189;-69
2024/01/18 05:41:40;;;;;;;3.17;2.43;;;20.60;52.90;;;;;;5092961;28;20547;-70
2024/01/18 05:44:05;;;;;;;3.30;2.53;;;20.50;52.80;;;;;;5093129;28;20205;-71
2024/01/18 05:46:31;;;;;;;3.67;2.30;;;20.50;52.80;;;;;;5093897;28;20565;-69
2024/01/18 05:48:56;;;;;;;2.80;1.97;;;20.50;52.80;;;;;;5093968;28;20193;-69
2024/01/18 05:51:22;;;;;;;2.63;2.30;;;20.50;52.90;;;;;;5075966;28;20491;-69
2024/01/18 05:53:48;;;;;;;3.63;2.53;;;20.50;52.90;;;;;;5093939;28;20256;-69
2024/01/18 05:56:13;;;;;;;3.90;2.47;;;20.50;53.00;;;;;;5093884;28;20185;-69
2024/01/18 05:58:39;;;;;;;4.20;2.80;;;20.50;53.00;;;;;;5093903;28;20182;-69
2024/01/18 06:01:05;;;;;;;2.80;2.20;;;20.50;53.10;;;;;;5093639;28;20178;-69
2024/01/18 06:03:31;;;;;;;3.43;2.50;;;20.50;53.10;;;;;;5093208;28;20213;-69
2024/01/18 06:05:58;;;;;;;3.93;2.60;;;20.50;53.10;;;;;;5093084;28;20483;-69
2024/01/18 06:08:24;;;;;;;4.60;3.30;;;20.50;53.10;;;;;;5092380;28;20256;-69
2024/01/18 06:10:50;;;;;;;3.17;2.87;;;20.50;53.10;;;;;;5092729;28;20423;-69
2024/01/18 06:13:15;;;;;;;3.10;2.30;;;20.50;53.10;;;;;;5092877;28;20957;-70
2024/01/18 06:15:42;;;;;;;4.63;2.40;;;20.60;53.20;;;;;;5092722;28;20510;-69
2024/01/18 06:18:08;;;;;;;4.13;2.70;;;20.50;53.20;;;;;;5092849;28;20193;-69
2024/01/18 06:20:33;;;;;;;4.70;3.30;;;20.50;53.10;;;;;;5092692;28;20447;-70
2024/01/18 06:22:59;;;;;;;3.80;3.07;;;20.60;53.10;;;;;;5092719;28;20542;-69
2024/01/18 06:25:25;;;;;;;4.47;2.77;;;20.50;53.00;;;;;;5092473;28;20280;-69
2024/01/18 06:27:50;;;;;;;3.83;2.93;;;20.60;53.10;;;;;;5091783;28;20223;-69
2024/01/18 06:30:18;;;;;;;3.70;2.70;;;20.60;53.10;;;;;;5091579;28;20588;-69
2024/01/18 06:32:44;;;;;;;3.37;2.50;;;20.60;53.10;;;;;;5091601;28;20654;-70
2024/01/18 06:35:12;;;;;;;4.57;3.40;;;20.60;53.10;;;;;;5091486;28;20423;-70
2024/01/18 06:37:38;;;;;;;4.70;2.93;;;20.60;53.10;;;;;;5091459;28;20424;-69
2024/01/18 06:40:04;;;;;;;5.03;3.17;;;20.60;53.10;;;;;;5073136;28;20439;-69
2024/01/18 06:42:31;;;;;;;7.90;3.20;;;20.60;53.10;;;;;;5091364;28;20204;-69
2024/01/18 06:44:57;;;;;;;4.30;3.27;;;20.70;53.20;;;;;;5091196;28;20456;-69
2024/01/18 06:47:23;;;;;;;4.93;3.10;;;20.70;53.10;;;;;;5091170;28;20408;-70
2024/01/18 06:49:48;;;;;;;4.63;3.00;;;20.70;53.70;;;;;;5091032;28;20472;-70
2024/01/18 06:52:14;;;;;;;3.53;2.90;;;20.70;53.20;;;;;;5091345;28;20209;-69
2024/01/18 06:54:43;;;;;;;4.47;3.07;;;20.80;53.20;;;;;;5072844;28;20177;-69
2024/01/18 06:57:09;;;;;;;6.73;3.90;;;20.80;53.20;;;;;;5090974;28;20185;-69
2024/01/18 06:59:35;;;;;;;5.20;3.80;;;20.80;53.20;;;;;;5091026;28;20431;-70
2024/01/18 07:02:01;;;;;;;4.60;3.27;;;20.80;53.20;;;;;;5091070;28;20303;-70
2024/01/18 07:04:26;;;;;;;4.33;2.70;;;20.80;53.10;;;;;;5091070;28;20169;-70
2024/01/18 07:06:52;;;;;;;5.00;3.27;;;20.80;53.10;;;;;;5090814;28;20551;-70
2024/01/18 07:09:18;;;;;;;3.90;2.97;;;20.80;53.10;;;;;;5090964;28;20194;-69
2024/01/18 07:11:43;;;;;;;4.03;3.20;;;20.80;53.10;;;;;;5091117;28;20250;-70
2024/01/18 07:14:09;;;;;;;3.93;3.10;;;20.90;53.20;;;;;;5091317;28;20198;-69
2024/01/18 07:16:34;;;;;;;3.60;3.23;;;20.90;53.20;;;;;;5091288;28;20816;-68
2024/01/18 07:19:00;;;;;;;5.00;3.20;;;20.90;53.20;;;;;;5090874;28;20208;-70
2024/01/18 07:21:26;;;;;;;5.27;3.90;;;20.90;53.10;;;;;;5090958;28;20177;-69
2024/01/18 07:23:51;;;;;;;5.37;3.37;;;20.90;53.10;;;;;;5090866;28;20207;-70
2024/01/18 07:26:18;;;;;;;4.07;3.00;;;20.90;52.90;;;;;;5072621;28;20237;-70
2024/01/18 07:28:44;;;;;;;6.43;3.30;;;20.90;53.10;;;;;;5072538;28;20201;-69
2024/01/18 07:31:09;;;;;;;4.57;3.00;;;20.90;53.10;;;;;;5090905;28;20415;-69
2024/01/18 07:33:37;;;;;;;4.80;3.00;;;20.90;53.10;;;;;;5090719;28;20226;-69
2024/01/18 07:36:03;;;;;;;4.50;3.27;;;20.90;53.10;;;;;;5090823;28;20731;-69
2024/01/18 07:38:29;;;;;;;4.97;3.53;;;20.90;53.10;;;;;;5090607;28;20403;-69
2024/01/18 07:40:54;;;;;;;3.73;3.33;;;20.90;53.10;;;;;;5090401;28;20756;-71
2024/01/18 07:43:20;;;;;;;5.57;3.73;;;20.90;53.00;;;;;;5090587;28;20181;-70
2024/01/18 07:45:45;;;;;;;4.30;3.70;;;20.90;53.00;;;;;;5090574;28;20193;-70
2024/01/18 07:48:11;;;;;;;3.70;3.13;;;20.90;53.10;;;;;;5090578;28;20260;-70
2024/01/18 07:50:37;;;;;;;4.03;2.90;;;21.00;53.10;;;;;;5090513;28;20201;-70
2024/01/18 07:53:03;;;;;;;3.90;2.70;;;21.00;53.10;;;;;;5090875;28;20636;-70
2024/01/18 07:55:29;;;;;;;3.60;3.10;;;21.00;53.10;;;;;;5090453;28;20423;-70
2024/01/18 07:57:54;;;;;;;5.30;3.20;;;21.00;53.10;;;;;;5090496;28;20416;-70
2024/01/18 08:00:20;;;;;;;3.40;3.10;;;21.00;53.10;;;;;;5090412;28;20667;-70
2024/01/18 08:02:45;;;;;;;3.60;2.63;;;21.00;53.10;;;;;;5090426;28;20181;-70
2024/01/18 08:05:12;;;;;;;5.23;2.90;;;21.00;53.10;;;;;;5090244;28;20201;-70
2024/01/18 08:07:38;;;;;;;3.83;2.70;;;21.00;53.10;;;;;;5090512;28;20949;-70
2024/01/18 08:10:06;;;;;;;5.50;2.90;;;21.00;53.10;;;;;;5090424;28;20434;-69
2024/01/18 08:12:31;;;;;;;4.40;2.67;;;21.00;53.10;;;;;;5090441;28;20781;-69
2024/01/18 08:14:57;;;;;;;5.00;3.10;;;21.00;53.00;;;;;;5090142;28;20414;-70
2024/01/18 08:17:22;;;;;;;4.90;3.27;;;21.00;53.00;;;;;;5090015;28;20893;-69
2024/01/18 08:19:48;;;;;;;4.43;3.13;;;21.00;53.00;;;;;;5089973;28;20278;-69
2024/01/18 08:22:15;;;;;;;3.37;2.33;;;21.00;53.00;;;;;;5089936;28;20184;-69
2024/01/18 08:24:41;;;;;;;4.37;2.97;;;21.00;53.00;;;;;;5089914;28;20182;-70
2024/01/18 08:27:07;;;;;;;3.70;2.80;;;21.00;53.00;;;;;;5089898;28;20416;-70
2024/01/18 08:29:34;;;;;;;4.63;3.87;;;21.00;53.00;;;;;;5089829;28;20855;-70
2024/01/18 08:32:01;;;;;;;5.83;3.30;;;21.00;53.00;;;;;;5090802;28;20408;-70
2024/01/18 08:34:27;;;;;;;3.87;2.90;;;21.00;52.90;;;;;;5093916;28;20412;-69
2024/01/18 08:36:52;;;;;;;7.03;4.07;;;21.00;52.90;;;;;;5093831;28;20408;-70
2024/01/18 08:39:19;;;;;;;4.80;3.40;;;21.00;52.90;;;;;;5094027;28;20205;-70
2024/01/18 08:41:44;;;;;;;3.73;3.30;;;21.00;53.00;;;;;;5075822;28;20264;-68
2024/01/18 08:44:10;;;;;;;3.33;2.47;;;21.00;52.90;;;;;;5093629;28;20507;-71
2024/01/18 08:46:38;;;;;;;3.50;3.03;;;21.00;53.00;;;;;;5093673;28;20676;-70
2024/01/18 08:49:04;;;;;;;4.47;3.00;;;21.00;53.00;;;;;;5093925;28;20553;-70
2024/01/18 08:51:29;;;;;;;3.67;2.57;;;21.00;53.00;;;;;;5093627;28;20419;-68
2024/01/18 08:53:55;;;;;;;3.97;3.00;;;21.00;53.00;;;;;;5093741;28;20630;-70
2024/01/18 08:56:21;;;;;;;5.53;3.00;;;20.90;52.90;;;;;;5093872;28;20170;-70
2024/01/18 08:58:46;;;;;;;4.90;3.33;;;20.90;52.90;;;;;;5093535;28;20193;-69
2024/01/18 09:01:12;;;;;;;4.50;2.97;;;20.90;52.90;;;;;;5093588;28;20261;-70
2024/01/18 09:03:38;;;;;;;4.23;3.20;;;20.90;52.90;;;;;;5093575;28;20226;-70
2024/01/18 09:06:03;;;;;;;5.00;2.77;;;20.90;52.90;;;;;;5093366;28;20462;-70
2024/01/18 09:08:29;;;;;;;4.03;2.60;;;20.90;52.90;;;;;;5075255;28;20204;-70
2024/01/18 09:10:55;;;;;;;4.67;3.00;;;20.90;53.00;;;;;;5093711;28;20184;-70
2024/01/18 09:13:20;;;;;;;5.40;3.27;;;20.90;53.00;;;;;;5093390;28;20177;-70
2024/01/18 09:15:48;;;;;;;2.80;2.40;;;20.90;52.90;;;;;;5093276;28;20225;-70
2024/01/18 09:18:13;;;;;;;3.03;2.60;;;20.90;53.00;;;;;;5093294;28;20185;-70
2024/01/18 09:20:40;;;;;;;3.40;2.40;;;20.90;53.00;;;;;;5075041;28;20439;-70
2024/01/18 09:23:05;;;;;;;3.37;2.70;;;20.90;53.00;;;;;;5092950;28;20177;-70
2024/01/18 09:25:31;;;;;;;3.90;2.93;;;21.00;53.10;;;;;;5092857;28;20513;-71
2024/01/18 09:27:56;;;;;;;3.07;2.63;;;20.90;53.00;;;;;;5074576;28;20730;-69
2024/01/18 09:30:23;;;;;;;5.00;3.30;;;20.90;53.00;;;;;;5093080;28;20190;-68
2024/01/18 09:32:49;;;;;;;4.23;2.87;;;20.90;53.00;;;;;;5074552;28;20170;-70
2024/01/18 09:35:14;;;;;;;3.90;3.00;;;20.90;53.00;;;;;;5092769;28;20419;-70
2024/01/18 09:37:40;;;;;;;4.00;2.40;;;20.90;53.00;;;;;;5092750;28;20723;-70
2024/01/18 09:40:11;;;;;;;3.67;3.10;;;20.90;53.00;;;;;;5092543;28;20250;-69
2024/01/18 09:42:42;;;;;;;6.10;3.13;;;20.90;53.00;;;;;;5092580;28;20173;-70
2024/01/18 09:45:11;;;;;;;3.30;3.00;;;20.90;53.00;;;;;;5091518;28;20443;-70
2024/01/18 09:47:37;;;;;;;4.07;2.87;;;20.90;53.00;;;;;;5092450;28;20857;-70
2024/01/18 09:50:03;;;;;;;5.00;2.87;;;20.90;53.00;;;;;;5092440;28;20514;-69
2024/01/18 09:52:29;;;;;;;3.90;2.40;;;20.90;53.00;;;;;;5092472;28;20875;-70
2024/01/18 09:54:54;;;;;;;4.80;3.10;;;20.90;53.00;;;;;;5092312;28;20404;-69
2024/01/18 09:57:30;;;;;;;5.10;3.23;;;20.90;53.10;;;;;;5092405;28;20166;-70
2024/01/18 09:59:58;;;;;;;4.23;2.27;;;20.90;53.10;;;;;;5092537;28;20332;-69
2024/01/18 10:02:25;;;;;;;5.17;2.93;;;20.90;53.10;;;;;;5092361;28;20435;-68
2024/01/18 10:04:54;;;;;;;3.80;2.70;;;20.90;53.10;;;;;;5092705;28;20412;-69
2024/01/18 10:07:20;;;;;;;3.57;2.70;;;20.90;53.10;;;;;;5092469;28;20997;-70
2024/01/18 10:09:47;;;;;;;3.83;2.83;;;20.90;53.10;;;;;;5092488;28;20481;-70
2024/01/18 10:12:12;;;;;;;4.40;2.67;;;20.90;53.10;;;;;;5092613;28;20408;-70
2024/01/18 10:14:43;;;;;;;4.03;2.40;;;20.90;53.10;;;;;;5092296;28;20787;-70
2024/01/18 10:17:18;;;;;;;3.70;2.30;;;20.90;53.10;;;;;;5092357;28;20216;-69
2024/01/18 10:19:44;;;;;;;3.60;2.80;;;20.90;53.10;;;;;;5073973;28;20435;-70
2024/01/18 10:22:10;;;;;;;3.80;2.70;;;20.90;53.10;;;;;;5073876;28;20452;-70
2024/01/18 10:24:40;;;;;;;3.47;2.23;;;20.90;53.20;;;;;;5092064;28;20165;-70
2024/01/18 10:27:06;;;;;;;2.60;2.07;;;20.90;53.10;;;;;;5092424;28;20193;-70
2024/01/18 10:29:36;;;;;;;3.80;2.40;;;20.90;53.10;;;;;;5092071;28;20458;-70
2024/01/18 10:32:06;;;;;;;3.40;2.30;;;20.90;53.20;;;;;;5074336;28;20404;-70
2024/01/18 10:34:38;;;;;;;3.10;2.77;;;20.90;53.10;;;;;;5091802;28;20373;-68
2024/01/18 10:37:05;;;;;;;3.20;2.60;;;21.00;53.10;;;;;;5091648;28;21007;-69
2024/01/18 10:39:41;;;;;;;3.27;2.47;;;21.00;53.10;;;;;;5091920;28;20499;-69
2024/01/18 10:42:12;;;;;;;3.77;2.70;;;21.00;53.20;;;;;;5091571;28;20452;-71
2024/01/18 10:44:43;;;;;;;4.60;2.80;;;20.90;53.10;;;;;;5091969;28;20387;-70
2024/01/18 10:47:13;;;;;;;4.00;2.70;;;20.90;53.10;;;;;;5073253;28;20519;-69
2024/01/18 10:49:42;;;;;;;3.93;2.40;;;21.00;53.20;;;;;;5091416;28;20419;-70
2024/01/18 10:52:09;;;;;;;3.77;2.50;;;21.00;53.20;;;;;;5091880;28;20870;-69
2024/01/18 10:54:35;;;;;;;3.40;2.10;;;21.00;53.20;;;;;;5091099;28;20483;-70
2024/01/18 10:57:01;;;;;;;4.30;2.83;;;21.00;53.20;;;;;;5091202;28;20469;-70
2024/01/18 10:59:29;;;;;;;2.70;2.10;;;20.90;53.20;;;;;;5091457;28;20953;-70
2024/01/18 11:02:01;;;;;;;3.63;2.37;;;20.90;53.10;;;;;;5091460;28;20188;-70
2024/01/18 11:04:28;;;;;;;4.77;3.13;;;20.90;53.10;;;;;;5073829;28;20436;-70
2024/01/18 11:06:58;;;;;;;4.03;2.90;;;20.90;53.20;;;;;;5091372;28;20807;-71
2024/01/18 11:09:26;;;;;;;4.00;2.70;;;20.90;53.10;;;;;;5091039;28;20427;-70
2024/01/18 11:11:53;;;;;;;3.77;2.73;;;20.90;53.20;;;;;;5091284;28;20422;-71
2024/01/18 11:14:20;;;;;;;2.90;2.30;;;20.90;53.20;;;;;;5091275;28;20400;-71
2024/01/18 11:16:45;;;;;;;4.03;2.80;;;20.90;53.20;;;;;;5091138;28;20431;-70
2024/01/18 11:19:11;;;;;;;3.50;2.37;;;20.90;53.10;;;;;;5091250;28;20493;-70
2024/01/18 11:21:38;;;;;;;2.63;2.00;;;20.90;53.20;;;;;;5091242;28;20267;-71
2024/01/18 11:24:07;;;;;;;2.80;2.17;;;21.00;53.20;;;;;;5091060;28;20208;-70
2024/01/18 11:26:33;;;;;;;3.40;2.70;;;20.90;53.10;;;;;;5091337;28;20561;-70
2024/01/18 11:29:18;;;;;;;5.57;2.43;;;20.90;53.20;;;;;;5090869;28;20427;-71
2024/01/18 11:31:51;;;;;;;3.33;2.10;;;21.00;53.20;;;;;;5091160;28;20408;-70
2024/01/18 11:34:38;;;;;;;3.37;2.47;;;21.00;52.70;;;;;;5073663;28;20913;-70
2024/01/18 11:37:10;;;;;;;2.30;1.90;;;21.00;53.20;;;;;;5091266;28;20408;-70
2024/01/18 11:39:47;;;;;;;2.70;2.10;;;21.00;53.20;;;;;;5090987;28;20535;-70
2024/01/18 11:42:18;;;;;;;3.37;2.23;;;21.00;53.20;;;;;;5091002;28;20431;-71
2024/01/18 11:44:56;;;;;;;3.37;2.77;;;21.00;53.20;;;;;;5090447;28;20426;-69
2024/01/18 11:47:23;;;;;;;3.60;2.40;;;21.00;53.20;;;;;;5090715;28;20880;-68
2024/01/18 11:49:50;;;;;;;2.73;2.00;;;21.00;53.20;;;;;;5090542;28;20431;-71
2024/01/18 11:52:16;;;;;;;2.60;2.03;;;21.00;53.20;;;;;;5090651;28;20414;-69
2024/01/18 11:54:43;;;;;;;2.50;2.13;;;21.00;53.20;;;;;;5090662;28;20764;-70
2024/01/18 11:57:13;;;;;;;3.20;2.13;;;21.00;53.70;;;;;;5090531;28;20415;-69
2024/01/18 11:59:43;;;;;;;3.40;2.63;;;21.00;53.10;;;;;;5090435;28;20468;-70
2024/01/18 12:02:10;;;;;;;2.17;1.97;;;21.00;53.20;;;;;;5091281;28;20800;-68
2024/01/18 12:04:35;;;;;;;3.50;2.30;;;21.00;53.20;;;;;;5090467;28;20776;-69
2024/01/18 12:07:01;;;;;;;4.00;2.47;;;21.00;53.40;;;;;;5073376;28;20536;-71
2024/01/18 12:09:29;;;;;;;3.17;2.53;;;21.00;53.20;;;;;;5094718;28;20272;-69
2024/01/18 12:11:56;;;;;;;3.00;2.20;;;21.00;53.20;;;;;;5076853;28;20169;-70
2024/01/18 12:14:22;;;;;;;3.00;2.30;;;21.00;53.20;;;;;;5094686;28;20464;-70
2024/01/18 12:16:48;;;;;;;3.07;2.10;;;21.00;53.20;;;;;;5076531;28;20447;-71
2024/01/18 12:19:29;;;;;;;3.00;2.33;;;21.00;53.20;;;;;;5094581;28;20427;-69
2024/01/18 12:21:54;;;;;;;3.33;2.13;;;21.00;53.20;;;;;;5076414;28;20407;-68
2024/01/18 12:24:20;;;;;;;3.20;2.27;;;21.00;53.20;;;;;;5094602;28;20973;-70
2024/01/18 12:26:46;;;;;;;2.80;2.10;;;21.00;53.20;;;;;;5094504;28;20605;-71
2024/01/18 12:29:12;;;;;;;4.27;2.50;;;21.00;53.20;;;;;;5094646;28;20242;-70
2024/01/18 12:31:37;;;;;;;3.03;2.10;;;21.00;53.20;;;;;;5094957;28;20180;-71
2024/01/18 12:34:03;;;;;;;3.77;2.93;;;21.00;53.20;;;;;;5094770;28;20755;-69
2024/01/18 12:36:29;;;;;;;3.37;2.20;;;21.00;53.20;;;;;;5094722;28;20169;-71
2024/01/18 12:38:54;;;;;;;2.93;1.80;;;21.00;53.20;;;;;;5094441;28;20230;-70
2024/01/18 12:41:22;;;;;;;4.47;2.40;;;21.00;53.20;;;;;;5094630;28;20169;-70
2024/01/18 12:43:47;;;;;;;3.60;2.43;;;21.00;53.20;;;;;;5094339;28;20650;-71